Time;durP1;ratioP1;P1;durP2;ratioP2;P2;SDS_P1;SDS_P2;PMS_P1;PMS_P2;Temp;Humidity;BMP_temperature;BMP_pressure;BME280_temperature;BME280_humidity;BME280_pressure;Samples;Min_cycle;Max_cycle;Signal;HPM_P1;HPM_P2
2021/04/27 00:00:15;;;;;;;4.35;2.15;;;;;;;8.31;34.51;99298.34;2218560;40;20033;-80
2021/04/27 00:01:46;;;;;;;5.97;1.95;;;;;;;8.27;34.65;99303.97;2217520;40;20046;-78
2021/04/27 00:03:17;;;;;;;3.25;1.33;;;;;;;8.24;34.46;99306.91;2218422;40;20524;-79
2021/04/27 00:04:49;;;;;;;4.97;2.10;;;;;;;8.27;34.67;99298.63;2217233;40;20424;-78
2021/04/27 00:06:20;;;;;;;5.10;1.70;;;;;;;8.28;34.61;99305.63;2218432;40;20029;-79
2021/04/27 00:07:51;;;;;;;3.75;1.60;;;;;;;8.36;34.41;99296.88;2216983;40;20045;-78
2021/04/27 00:09:23;;;;;;;4.90;2.03;;;;;;;8.43;34.25;99297.13;2218765;40;20036;-80
2021/04/27 00:10:54;;;;;;;3.55;1.60;;;;;;;8.46;34.14;99299.50;2217547;40;20053;-79
2021/04/27 00:12:27;;;;;;;3.75;1.60;;;;;;;8.45;34.39;99300.50;2218755;40;20063;-78
2021/04/27 00:13:59;;;;;;;5.05;2.05;;;;;;;8.48;34.30;99302.91;2216921;40;20045;-79
2021/04/27 00:15:32;;;;;;;3.90;1.63;;;;;;;8.48;34.36;99299.38;2218240;40;20041;-78
2021/04/27 00:17:03;;;;;;;5.53;2.28;;;;;;;8.47;34.36;99301.22;2217124;40;20049;-79
2021/04/27 00:18:35;;;;;;;3.80;1.80;;;;;;;8.43;34.55;99292.66;2216700;40;20050;-78
2021/04/27 00:20:08;;;;;;;3.47;1.25;;;;;;;8.45;34.42;99297.81;2217279;40;20057;-79
2021/04/27 00:21:39;;;;;;;6.93;1.98;;;;;;;8.43;34.80;99302.47;2218291;40;20057;-78
2021/04/27 00:23:11;;;;;;;7.65;2.20;;;;;;;8.38;34.80;99305.56;2216902;40;20048;-79
2021/04/27 00:24:42;;;;;;;4.63;1.77;;;;;;;8.34;35.05;99306.00;2218298;40;20029;-78
2021/04/27 00:26:13;;;;;;;7.82;1.77;;;;;;;8.23;35.27;99313.22;2216890;40;20053;-78
2021/04/27 00:27:48;;;;;;;5.30;1.88;;;;;;;8.23;35.15;99305.22;2218571;40;20554;-78
2021/04/27 00:29:19;;;;;;;7.97;2.00;;;;;;;8.21;35.46;99299.22;2218258;40;20034;-80
2021/04/27 00:30:51;;;;;;;4.60;1.95;;;;;;;8.03;35.90;99301.81;2218387;40;20033;-78
2021/04/27 00:32:22;;;;;;;6.78;1.77;;;;;;;7.90;36.28;99298.63;2214430;40;20056;-80
2021/04/27 00:33:53;;;;;;;6.45;2.05;;;;;;;7.83;36.52;99295.75;2218552;40;20034;-79
2021/04/27 00:35:25;;;;;;;4.80;2.00;;;;;;;7.74;36.77;99296.63;2217302;40;20045;-78
2021/04/27 00:36:57;;;;;;;4.18;2.00;;;;;;;7.69;36.92;99290.88;2218087;40;20030;-78
2021/04/27 00:38:28;;;;;;;5.32;2.35;;;;;;;7.65;36.84;99291.16;2218655;40;20029;-78
2021/04/27 00:39:59;;;;;;;4.85;1.92;;;;;;;7.65;36.85;99291.16;2204381;40;20049;-78
2021/04/27 00:41:30;;;;;;;6.57;2.17;;;;;;;7.60;36.90;99281.97;2186724;40;20041;-79
2021/04/27 00:43:03;;;;;;;4.55;2.10;;;;;;;7.64;37.12;99286.00;2214377;40;20645;-78
2021/04/27 00:44:34;;;;;;;4.25;1.75;;;;;;;7.56;37.26;99291.19;2192455;40;20099;-80
2021/04/27 00:46:06;;;;;;;7.82;2.25;;;;;;;7.52;37.43;99285.31;2211480;40;20045;-80
2021/04/27 00:47:37;;;;;;;7.43;1.90;;;;;;;7.52;37.44;99280.00;2217202;40;20057;-80
2021/04/27 00:49:09;;;;;;;5.03;2.15;;;;;;;7.51;37.70;99285.47;2219277;40;20037;-79
2021/04/27 00:50:41;;;;;;;4.70;1.83;;;;;;;7.45;37.67;99276.25;2217867;40;20053;-80
2021/04/27 00:52:12;;;;;;;5.90;1.90;;;;;;;7.42;37.74;99273.88;2212301;40;20571;-81
2021/04/27 00:53:44;;;;;;;6.90;2.40;;;;;;;7.38;37.98;99285.75;2210992;40;20056;-79
2021/04/27 00:55:16;;;;;;;4.20;2.20;;;;;;;7.37;37.96;99281.44;2211965;40;20429;-80
2021/04/27 00:56:47;;;;;;;5.80;1.92;;;;;;;7.33;38.14;99284.38;2211986;40;20220;-80
2021/04/27 00:58:21;;;;;;;4.63;1.85;;;;;;;7.36;37.98;99282.44;2212108;40;20090;-80
2021/04/27 00:59:55;;;;;;;6.03;2.20;;;;;;;7.33;37.68;99284.38;2213203;40;20365;-81
2021/04/27 01:01:27;;;;;;;4.22;1.80;;;;;;;7.31;37.90;99283.69;2211628;40;20042;-79
2021/04/27 01:02:58;;;;;;;5.03;2.00;;;;;;;7.23;38.22;99283.56;2199385;40;20500;-80
2021/04/27 01:04:29;;;;;;;5.75;1.90;;;;;;;7.25;38.55;99289.59;2212148;40;20033;-80
2021/04/27 01:06:00;;;;;;;7.43;2.38;;;;;;;7.23;38.38;99286.22;2182582;40;20047;-79
2021/04/27 01:07:35;;;;;;;4.22;2.03;;;;;;;7.20;38.53;99283.00;2182807;40;20589;-80
2021/04/27 01:09:14;;;;;;;6.40;1.92;;;;;;;7.17;38.64;99276.16;2134557;41;20042;-79
2021/04/27 01:10:52;;;;;;;4.72;2.45;;;;;;;7.11;38.68;99287.34;2193351;40;24062;-79
2021/04/27 01:12:27;;;;;;;5.13;2.00;;;;;;;7.09;38.68;99268.03;2197802;40;20063;-80
2021/04/27 01:14:06;;;;;;;5.82;1.92;;;;;;;7.10;38.75;99275.03;2201676;40;20040;-79
2021/04/27 01:15:39;;;;;;;6.57;2.15;;;;;;;7.13;38.70;99266.78;2209427;40;20048;-80
2021/04/27 01:17:12;;;;;;;5.93;2.15;;;;;;;7.22;39.00;99265.94;2199293;40;20129;-79
2021/04/27 01:18:49;;;;;;;6.13;1.80;;;;;;;7.09;38.92;99265.38;2211000;40;20147;-80
2021/04/27 01:20:30;;;;;;;5.00;2.10;;;;;;;7.03;39.05;99267.63;2207889;40;20041;-79
2021/04/27 01:22:02;;;;;;;4.55;1.90;;;;;;;6.95;39.39;99264.84;2199115;40;20058;-79
2021/04/27 01:23:59;;;;;;;5.90;2.00;;;;;;;6.91;39.53;99263.44;2193170;40;20146;-80
2021/04/27 01:25:37;;;;;;;4.80;2.05;;;;;;;6.89;39.72;99249.47;2209272;40;20461;-80
2021/04/27 01:27:11;;;;;;;6.93;2.00;;;;;;;6.81;39.91;99255.47;2211496;40;20042;-79
2021/04/27 01:28:43;;;;;;;4.30;2.10;;;;;;;6.78;39.83;99252.25;2198471;40;20038;-78
2021/04/27 01:30:15;;;;;;;6.18;2.28;;;;;;;6.73;40.08;99258.00;2199629;40;20042;-79
2021/04/27 01:31:47;;;;;;;6.20;1.80;;;;;;;6.75;39.93;99253.38;2195611;40;20039;-80
2021/04/27 01:33:21;;;;;;;3.80;1.60;;;;;;;6.76;40.00;99254.22;2181049;40;20063;-80
2021/04/27 01:34:53;;;;;;;6.25;2.03;;;;;;;6.67;40.13;99256.72;2182874;40;20061;-79
2021/04/27 01:36:24;;;;;;;6.47;2.30;;;;;;;6.60;40.33;99260.06;2203223;40;20112;-79
2021/04/27 01:37:56;;;;;;;4.65;2.03;;;;;;;6.57;40.58;99261.19;2216560;40;20053;-79
2021/04/27 01:39:28;;;;;;;4.45;2.33;;;;;;;6.53;40.56;99263.28;2198123;40;20035;-79
2021/04/27 01:41:00;;;;;;;5.82;2.08;;;;;;;6.54;40.62;99259.66;2198257;40;20038;-78
2021/04/27 01:42:33;;;;;;;4.25;1.77;;;;;;;6.50;40.77;99260.91;2201021;40;20027;-78
2021/04/27 01:44:05;;;;;;;4.90;2.00;;;;;;;6.49;40.80;99259.22;2202870;40;20046;-79
2021/04/27 01:45:38;;;;;;;5.00;2.05;;;;;;;6.47;40.93;99260.34;2205188;40;20470;-79
2021/04/27 01:47:11;;;;;;;5.93;1.77;;;;;;;6.43;41.09;99257.13;2203033;40;20056;-78
2021/04/27 01:48:42;;;;;;;4.82;2.10;;;;;;;6.40;40.99;99265.34;2211817;40;20034;-78
2021/04/27 01:50:14;;;;;;;5.50;2.00;;;;;;;6.42;40.90;99259.94;2203453;40;20045;-78
2021/04/27 01:51:46;;;;;;;9.23;2.25;;;;;;;6.43;40.94;99270.41;2199053;40;20062;-78
2021/04/27 01:53:19;;;;;;;8.00;1.88;;;;;;;6.40;40.83;99268.00;2169942;40;20046;-79
2021/04/27 01:54:50;;;;;;;6.60;2.10;;;;;;;6.38;41.20;99273.47;2194183;40;20043;-77
2021/04/27 01:56:22;;;;;;;4.20;1.92;;;;;;;6.39;41.32;99268.97;2196663;40;20062;-78
2021/04/27 01:57:54;;;;;;;5.45;2.22;;;;;;;6.39;41.21;99264.53;2199806;40;20031;-78
2021/04/27 01:59:25;;;;;;;4.85;1.90;;;;;;;6.46;41.06;99270.13;2196149;40;20592;-78
2021/04/27 02:00:56;;;;;;;8.38;2.35;;;;;;;6.47;40.79;99260.34;2193228;40;20032;-79
2021/04/27 02:02:32;;;;;;;4.93;2.17;;;;;;;6.48;41.08;99264.69;2191500;40;20039;-78
2021/04/27 02:04:04;;;;;;;6.05;1.83;;;;;;;6.46;41.06;99259.50;2206098;40;20088;-78
2021/04/27 02:05:35;;;;;;;6.60;1.90;;;;;;;6.43;40.87;99256.25;2208440;40;20046;-79
2021/04/27 02:07:07;;;;;;;3.67;1.70;;;;;;;6.38;41.27;99257.53;2216601;40;20468;-79
2021/04/27 02:08:39;;;;;;;5.43;1.90;;;;;;;6.36;41.29;99259.47;2211053;40;20034;-79
2021/04/27 02:10:12;;;;;;;4.97;1.83;;;;;;;6.36;41.50;99254.16;2204343;40;20058;-78
2021/04/27 02:11:48;;;;;;;4.72;2.08;;;;;;;6.43;41.40;99253.63;2167358;40;20040;-79
2021/04/27 02:13:20;;;;;;;6.47;2.38;;;;;;;6.44;41.13;99253.50;2203252;40;21951;-78
2021/04/27 02:14:52;;;;;;;4.53;1.98;;;;;;;6.43;41.08;99253.63;2148817;41;20048;-79
2021/04/27 02:16:29;;;;;;;7.75;1.95;;;;;;;6.38;41.16;99246.91;2175602;40;20064;-79
2021/04/27 02:18:09;;;;;;;6.43;1.98;;;;;;;6.38;41.10;99249.56;2145195;41;20048;-79
2021/04/27 02:19:41;;;;;;;8.10;2.10;;;;;;;6.38;41.34;99248.72;2171674;40;20103;-79
2021/04/27 02:21:16;;;;;;;6.32;2.10;;;;;;;6.35;41.31;99249.84;2192147;40;20039;-79
2021/04/27 02:22:49;;;;;;;5.57;1.80;;;;;;;6.32;41.38;99247.47;2195415;40;20032;-78
2021/04/27 02:24:22;;;;;;;3.58;1.90;;;;;;;6.34;41.32;99244.66;2178020;41;20086;-77
2021/04/27 02:25:54;;;;;;;4.53;2.20;;;;;;;6.29;41.53;99250.38;2177665;41;20125;-79
2021/04/27 02:27:27;;;;;;;4.78;1.80;;;;;;;6.25;41.64;99251.63;2183119;40;20036;-78
2021/04/27 02:29:01;;;;;;;5.72;1.85;;;;;;;6.24;41.78;99247.28;2197663;40;20096;-78
2021/04/27 02:30:33;;;;;;;5.55;2.10;;;;;;;6.20;41.77;99243.25;2207533;40;20030;-79
2021/04/27 02:32:05;;;;;;;5.40;1.90;;;;;;;6.19;41.84;99244.22;2200266;40;20048;-79
2021/04/27 02:33:39;;;;;;;5.20;1.67;;;;;;;6.19;41.93;99246.88;2212027;40;20026;-78
2021/04/27 02:35:13;;;;;;;7.05;2.03;;;;;;;6.23;41.98;99242.97;2203585;40;20141;-77
2021/04/27 02:36:44;;;;;;;4.90;2.00;;;;;;;6.21;42.21;99247.59;2207933;40;20027;-78
2021/04/27 02:38:18;;;;;;;6.78;1.90;;;;;;;6.16;42.13;99241.81;2183130;40;20145;-78
2021/04/27 02:39:49;;;;;;;4.60;2.05;;;;;;;6.12;42.21;99237.78;2200328;40;20037;-78
2021/04/27 02:41:21;;;;;;;5.18;1.80;;;;;;;6.09;41.89;99238.91;2202680;40;20660;-78
2021/04/27 02:42:54;;;;;;;5.80;1.90;;;;;;;6.07;42.34;99230.22;2206294;40;20038;-79
2021/04/27 02:44:27;;;;;;;3.97;1.80;;;;;;;6.05;42.40;99235.66;2168574;40;20584;-78
2021/04/27 02:45:58;;;;;;;4.03;1.80;;;;;;;6.03;42.45;99237.63;2194595;40;20133;-77
2021/04/27 02:47:29;;;;;;;4.65;1.98;;;;;;;6.04;42.49;99239.31;2200321;40;20041;-78
2021/04/27 02:49:01;;;;;;;6.57;2.10;;;;;;;5.97;42.56;99232.81;2218060;40;20591;-78
2021/04/27 02:50:33;;;;;;;4.82;1.77;;;;;;;5.96;42.64;99230.31;2207815;40;20089;-77
2021/04/27 02:52:04;;;;;;;4.68;2.00;;;;;;;5.96;42.84;99225.81;2204702;40;20041;-79
2021/04/27 02:53:35;;;;;;;4.05;1.95;;;;;;;5.98;42.73;99229.19;2205170;40;20041;-78
2021/04/27 02:55:07;;;;;;;5.30;1.98;;;;;;;5.99;42.88;99228.25;2192695;40;20035;-78
2021/04/27 02:56:40;;;;;;;4.70;1.88;;;;;;;5.96;43.01;99223.16;2196569;40;20038;-77
2021/04/27 02:58:12;;;;;;;5.70;2.10;;;;;;;5.93;42.90;99220.81;2215836;40;20063;-79
2021/04/27 02:59:48;;;;;;;3.90;1.90;;;;;;;5.83;43.17;99215.44;2214228;40;20053;-80
2021/04/27 03:01:20;;;;;;;5.47;2.53;;;;;;;5.75;43.38;99212.63;2215278;40;20493;-79
2021/04/27 03:02:51;;;;;;;8.00;1.83;;;;;;;5.71;43.57;99217.38;2216331;40;20116;-78
2021/04/27 03:04:23;;;;;;;3.78;1.92;;;;;;;5.70;43.57;99213.03;2210974;40;20049;-76
2021/04/27 03:05:54;;;;;;;5.10;1.88;;;;;;;5.69;43.62;99218.50;2205230;40;20049;-79
2021/04/27 03:07:25;;;;;;;4.25;1.98;;;;;;;5.69;43.57;99214.00;2204652;40;20039;-77
2021/04/27 03:08:57;;;;;;;4.68;2.00;;;;;;;5.69;43.79;99214.00;2213368;40;20030;-79
2021/04/27 03:10:28;;;;;;;7.05;2.30;;;;;;;5.69;43.64;99219.31;2201531;40;20046;-78
2021/04/27 03:11:59;;;;;;;6.43;1.85;;;;;;;5.68;43.74;99214.16;2189031;40;20074;-77
2021/04/27 03:13:31;;;;;;;5.32;1.95;;;;;;;5.63;43.80;99214.56;2212606;40;20398;-77
2021/04/27 03:15:04;;;;;;;7.82;2.60;;;;;;;5.63;43.71;99206.59;2214793;40;20037;-78
2021/04/27 03:16:36;;;;;;;5.93;2.38;;;;;;;5.66;43.86;99209.00;2214423;40;20026;-76
2021/04/27 03:18:06;;;;;;;5.28;1.80;;;;;;;5.63;43.86;99210.06;2210888;40;20564;-81
2021/04/27 03:19:38;;;;;;;5.43;2.05;;;;;;;5.60;43.92;99213.00;2208411;40;23787;-79
2021/04/27 03:21:09;;;;;;;5.22;3.03;;;;;;;5.56;44.05;99216.06;2213498;40;20030;-81
2021/04/27 03:22:41;;;;;;;7.00;2.25;;;;;;;5.55;44.02;99219.69;2213002;40;20486;-77
2021/04/27 03:24:12;;;;;;;8.13;2.80;;;;;;;5.52;44.05;99223.44;2212942;40;20034;-78
2021/04/27 03:25:44;;;;;;;5.45;2.35;;;;;;;5.49;44.24;99222.84;2180346;40;20589;-79
2021/04/27 03:27:14;;;;;;;4.47;1.83;;;;;;;5.44;44.33;99216.16;2206459;40;20037;-78
2021/04/27 03:28:46;;;;;;;4.25;2.13;;;;;;;5.45;44.36;99224.94;2200887;40;20425;-77
2021/04/27 03:30:18;;;;;;;8.10;1.88;;;;;;;5.46;44.35;99218.66;2194009;40;20040;-79
2021/04/27 03:31:50;;;;;;;7.05;1.77;;;;;;;5.49;44.28;99225.50;2175776;41;20056;-78
2021/04/27 03:33:21;;;;;;;6.75;1.92;;;;;;;5.45;44.23;99228.44;2178577;40;20040;-80
2021/04/27 03:34:52;;;;;;;5.75;1.95;;;;;;;5.47;44.32;99221.19;2190916;40;20040;-78
2021/04/27 03:36:24;;;;;;;4.65;2.28;;;;;;;5.44;44.35;99224.09;2193883;40;20044;-77
2021/04/27 03:37:56;;;;;;;8.75;2.38;;;;;;;5.46;44.11;99223.97;2177653;40;20050;-76
2021/04/27 03:39:27;;;;;;;8.35;2.30;;;;;;;5.50;44.31;99229.84;2197281;40;20037;-78
2021/04/27 03:40:59;;;;;;;9.45;2.50;;;;;;;5.47;44.25;99229.16;2203338;40;20516;-79
2021/04/27 03:42:31;;;;;;;5.00;2.20;;;;;;;5.46;44.26;99229.25;2213898;40;20221;-76
2021/04/27 03:44:03;;;;;;;7.45;2.40;;;;;;;5.43;44.24;99222.41;2218278;40;20329;-80
2021/04/27 03:45:36;;;;;;;4.72;1.65;;;;;;;5.46;44.00;99227.47;2220039;40;20030;-79
2021/04/27 03:47:07;;;;;;;4.53;1.83;;;;;;;5.57;43.96;99231.00;2216868;40;20037;-79
2021/04/27 03:48:38;;;;;;;6.22;1.90;;;;;;;5.68;43.63;99233.53;2218104;40;20044;-79
2021/04/27 03:50:14;;;;;;;6.55;1.80;;;;;;;5.74;43.47;99235.69;2201623;40;20061;-79
2021/04/27 03:51:46;;;;;;;5.57;2.05;;;;;;;5.78;43.40;99242.38;2219116;40;20045;-79
2021/04/27 03:53:21;;;;;;;6.63;1.90;;;;;;;5.84;43.31;99234.88;2201177;40;20033;-79
2021/04/27 03:54:54;;;;;;;4.22;1.60;;;;;;;5.89;43.22;99230.00;2221562;40;20030;-78
2021/04/27 03:56:24;;;;;;;4.70;1.85;;;;;;;5.92;43.15;99232.38;2214621;40;20179;-77
2021/04/27 03:57:56;;;;;;;4.85;1.65;;;;;;;5.82;43.38;99229.69;2215519;40;20041;-77
2021/04/27 03:59:27;;;;;;;6.15;1.92;;;;;;;5.74;43.55;99237.47;2202264;40;20022;-77
2021/04/27 04:01:00;;;;;;;5.22;2.00;;;;;;;5.75;43.38;99237.38;2201315;40;20019;-80
2021/04/27 04:02:32;;;;;;;5.07;1.80;;;;;;;5.80;43.37;99236.97;2153451;40;20468;-77
2021/04/27 04:04:03;;;;;;;5.38;2.10;;;;;;;5.79;43.34;99229.97;2202442;40;20027;-78
2021/04/27 04:05:35;;;;;;;3.90;1.92;;;;;;;5.69;43.73;99237.88;2148309;40;20659;-78
2021/04/27 04:07:06;;;;;;;4.45;1.88;;;;;;;5.61;43.56;99237.72;2190463;40;20031;-77
2021/04/27 04:08:37;;;;;;;4.70;2.22;;;;;;;5.62;43.89;99234.91;2172630;40;20035;-78
2021/04/27 04:10:11;;;;;;;5.38;1.95;;;;;;;5.60;43.95;99238.69;2198002;40;20053;-79
2021/04/27 04:11:42;;;;;;;6.03;1.80;;;;;;;5.53;44.04;99234.88;2191386;40;20035;-77
2021/04/27 04:13:14;;;;;;;6.55;2.40;;;;;;;5.51;44.01;99234.16;2198171;40;20064;-77
2021/04/27 04:14:44;;;;;;;5.18;2.33;;;;;;;5.46;44.26;99231.91;2196280;40;20058;-79
2021/04/27 04:16:17;;;;;;;5.38;1.98;;;;;;;5.45;44.29;99233.72;2197573;40;20043;-78
2021/04/27 04:17:48;;;;;;;10.35;2.53;;;;;;;5.47;44.32;99236.25;2156300;40;20058;-78
2021/04/27 04:19:20;;;;;;;5.97;2.13;;;;;;;5.53;44.12;99227.75;2193913;40;20082;-80
2021/04/27 04:20:52;;;;;;;4.97;2.22;;;;;;;5.58;44.20;99238.81;2204302;40;20649;-80
2021/04/27 04:22:30;;;;;;;5.13;2.70;;;;;;;5.57;43.81;99238.97;2208389;40;20079;-79
2021/04/27 04:24:08;;;;;;;5.50;1.98;;;;;;;5.55;44.11;99233.78;2187649;40;20050;-78
2021/04/27 04:25:40;;;;;;;4.72;1.90;;;;;;;5.59;44.17;99234.34;2171098;40;20056;-78
2021/04/27 04:27:12;;;;;;;4.75;2.50;;;;;;;5.65;43.83;99238.28;2209689;40;20037;-78
2021/04/27 04:28:43;;;;;;;5.22;1.77;;;;;;;5.72;43.58;99237.63;2217802;40;20048;-78
2021/04/27 04:30:18;;;;;;;4.88;1.90;;;;;;;5.80;43.46;99222.84;2203915;40;20682;-79
2021/04/27 04:31:50;;;;;;;4.70;1.90;;;;;;;5.70;43.48;99242.22;2199885;40;20047;-79
2021/04/27 04:33:22;;;;;;;7.97;2.33;;;;;;;5.64;43.85;99237.44;2220366;40;20025;-78
2021/04/27 04:34:53;;;;;;;11.70;2.10;;;;;;;5.58;44.01;99230.00;2166026;40;20046;-79
2021/04/27 04:36:25;;;;;;;7.45;1.95;;;;;;;5.60;43.99;99238.69;2218369;40;20033;-79
2021/04/27 04:37:57;;;;;;;6.35;2.00;;;;;;;5.63;43.79;99233.94;2201024;40;20049;-78
2021/04/27 04:39:28;;;;;;;4.47;1.80;;;;;;;5.74;43.56;99237.47;2218921;40;20038;-78
2021/04/27 04:41:00;;;;;;;9.02;2.22;;;;;;;5.77;43.49;99240.69;2216670;40;20041;-78
2021/04/27 04:42:31;;;;;;;4.15;1.67;;;;;;;5.75;43.50;99245.31;2219399;40;20037;-77
2021/04/27 04:44:10;;;;;;;7.07;1.92;;;;;;;5.77;43.42;99239.88;2217643;40;20127;-77
2021/04/27 04:45:41;;;;;;;6.05;1.95;;;;;;;5.78;43.38;99247.69;2220172;40;20321;-77
2021/04/27 04:47:14;;;;;;;5.03;2.03;;;;;;;5.63;43.71;99241.06;2219591;40;20030;-77
2021/04/27 04:48:48;;;;;;;6.30;2.10;;;;;;;5.52;43.87;99241.16;2227571;40;20061;-78
2021/04/27 04:50:20;;;;;;;7.13;2.67;;;;;;;5.46;44.16;99243.38;2177794;40;20091;-77
2021/04/27 04:51:51;;;;;;;7.97;2.13;;;;;;;5.49;44.14;99233.44;2217757;40;20029;-77
2021/04/27 04:53:23;;;;;;;8.85;2.10;;;;;;;5.44;44.27;99237.34;2212583;40;20073;-77
2021/04/27 04:54:54;;;;;;;4.80;1.83;;;;;;;5.43;44.49;99238.31;2215834;40;20071;-79
2021/04/27 04:56:26;;;;;;;4.72;1.90;;;;;;;5.43;44.39;99232.19;2152263;40;20400;-77
2021/04/27 04:57:57;;;;;;;4.82;2.00;;;;;;;5.41;44.44;99239.44;2218017;40;20044;-78
2021/04/27 04:59:28;;;;;;;8.57;2.10;;;;;;;5.40;44.71;99230.63;2212510;40;20051;-79
2021/04/27 05:00:59;;;;;;;6.07;2.22;;;;;;;5.37;44.75;99235.34;2225599;40;20053;-78
2021/04/27 05:02:31;;;;;;;8.35;2.55;;;;;;;5.40;44.81;99232.44;2184992;40;20044;-78
2021/04/27 05:04:04;;;;;;;6.85;2.20;;;;;;;5.38;44.60;99235.25;2211743;40;20122;-78
2021/04/27 05:05:36;;;;;;;8.07;2.25;;;;;;;5.37;44.73;99240.66;2146444;40;20099;-78
2021/04/27 05:07:10;;;;;;;7.70;2.25;;;;;;;5.36;44.90;99234.53;2206345;40;20034;-78
2021/04/27 05:08:44;;;;;;;6.90;1.90;;;;;;;5.37;44.76;99241.50;2147940;40;20046;-78
2021/04/27 05:10:16;;;;;;;8.23;2.30;;;;;;;5.40;44.67;99241.22;2209143;40;20030;-79
2021/04/27 05:11:47;;;;;;;5.72;1.98;;;;;;;5.39;44.77;99236.91;2182135;40;20072;-79
2021/04/27 05:13:18;;;;;;;8.13;1.92;;;;;;;5.40;44.83;99230.63;2216149;40;20045;-78
2021/04/27 05:14:50;;;;;;;7.28;2.20;;;;;;;5.41;44.70;99242.09;2200502;40;20042;-78
2021/04/27 05:16:23;;;;;;;7.25;1.83;;;;;;;5.43;44.67;99238.31;2208398;40;20092;-78
2021/04/27 05:17:55;;;;;;;6.10;2.40;;;;;;;5.46;44.74;99240.72;2187855;40;20152;-79
2021/04/27 05:19:27;;;;;;;6.80;2.00;;;;;;;5.37;44.91;99241.50;2198494;40;20030;-79
2021/04/27 05:20:58;;;;;;;6.32;2.20;;;;;;;5.31;45.13;99240.22;2211540;40;20048;-79
2021/04/27 05:22:30;;;;;;;6.53;2.10;;;;;;;5.32;45.07;99238.38;2163344;40;20031;-78
2021/04/27 05:24:00;;;;;;;11.52;2.60;;;;;;;5.34;45.17;99238.28;2186902;40;20039;-76
2021/04/27 05:25:32;;;;;;;5.85;2.15;;;;;;;5.35;45.29;99246.09;2210798;40;20030;-78
2021/04/27 05:27:06;;;;;;;7.53;2.40;;;;;;;5.28;45.28;99231.69;2211131;40;20635;-78
2021/04/27 05:28:37;;;;;;;6.95;2.60;;;;;;;5.30;45.16;99235.03;2161700;40;20050;-79
2021/04/27 05:30:10;;;;;;;6.57;2.40;;;;;;;5.29;45.17;99239.50;2207121;40;20065;-78
2021/04/27 05:31:42;;;;;;;10.63;3.63;;;;;;;5.31;45.36;99234.06;2207658;40;22476;-79
2021/04/27 05:33:14;;;;;;;7.43;2.10;;;;;;;5.30;45.32;99233.22;2215005;40;20053;-79
2021/04/27 05:34:45;;;;;;;8.13;2.10;;;;;;;5.29;45.32;99228.06;2215851;40;20120;-79
2021/04/27 05:36:16;;;;;;;7.00;2.17;;;;;;;5.31;45.34;99231.41;2218678;40;20053;-77
2021/04/27 05:37:50;;;;;;;8.65;2.42;;;;;;;5.37;45.31;99230.06;2217905;40;20528;-78
2021/04/27 05:39:22;;;;;;;5.88;1.73;;;;;;;5.44;44.78;99234.69;2219310;40;20037;-77
2021/04/27 05:40:53;;;;;;;6.22;2.00;;;;;;;5.56;44.67;99234.63;2216317;40;20041;-77
2021/04/27 05:42:24;;;;;;;8.27;1.80;;;;;;;5.62;44.69;99244.69;2218093;40;20041;-78
2021/04/27 05:43:56;;;;;;;6.45;1.95;;;;;;;5.63;44.48;99233.13;2216758;40;20433;-78
2021/04/27 05:45:27;;;;;;;5.90;2.28;;;;;;;5.66;44.56;99242.59;2217456;40;20046;-77
2021/04/27 05:46:59;;;;;;;6.72;2.17;;;;;;;5.67;44.30;99236.34;2216512;40;20033;-77
2021/04/27 05:48:31;;;;;;;5.70;1.70;;;;;;;5.68;44.41;99245.97;2216879;40;20046;-77
2021/04/27 05:50:03;;;;;;;9.82;1.90;;;;;;;5.69;44.34;99243.19;2209641;40;20045;-77
2021/04/27 05:51:35;;;;;;;5.93;2.08;;;;;;;5.65;44.63;99241.78;2217377;40;20029;-76
2021/04/27 05:53:07;;;;;;;7.78;2.70;;;;;;;5.72;44.41;99237.63;2161233;40;20053;-76
2021/04/27 05:54:39;;;;;;;6.40;1.80;;;;;;;5.78;44.27;99239.72;2210804;40;20042;-76
2021/04/27 05:56:10;;;;;;;4.97;2.05;;;;;;;5.94;43.92;99233.09;2217791;40;20033;-76
2021/04/27 05:57:41;;;;;;;7.97;2.10;;;;;;;5.95;43.73;99242.75;2218987;40;20030;-77
2021/04/27 05:59:13;;;;;;;5.30;1.77;;;;;;;5.99;43.51;99232.69;2215683;40;20045;-77
2021/04/27 06:00:45;;;;;;;10.23;1.95;;;;;;;6.13;43.22;99228.84;2217996;40;20037;-76
2021/04/27 06:02:16;;;;;;;6.65;2.28;;;;;;;6.17;43.13;99235.53;2216266;40;20057;-76
2021/04/27 06:03:49;;;;;;;8.20;2.67;;;;;;;6.20;42.94;99235.28;2217401;40;20030;-77
2021/04/27 06:05:20;;;;;;;9.25;2.25;;;;;;;6.08;43.05;99229.25;2216518;40;20472;-77
2021/04/27 06:06:51;;;;;;;6.95;3.10;;;;;;;6.12;43.04;99232.47;2216896;40;20052;-77
2021/04/27 06:08:23;;;;;;;5.72;2.25;;;;;;;6.04;43.30;99241.97;2215579;40;20614;-78
2021/04/27 06:09:54;;;;;;;8.43;2.30;;;;;;;6.09;43.15;99234.41;2215925;40;20053;-77
2021/04/27 06:11:25;;;;;;;7.55;2.47;;;;;;;6.12;42.94;99237.78;2215951;40;20041;-77
2021/04/27 06:12:56;;;;;;;6.25;2.00;;;;;;;6.18;42.95;99240.75;2217203;40;20337;-78
2021/04/27 06:14:27;;;;;;;5.93;2.20;;;;;;;6.16;42.50;99231.22;2215312;40;20036;-78
2021/04/27 06:15:58;;;;;;;5.20;2.00;;;;;;;6.13;42.72;99234.97;2217775;40;20415;-77
2021/04/27 06:17:30;;;;;;;5.03;2.30;;;;;;;6.19;42.60;99230.94;2215467;40;20036;-77
2021/04/27 06:19:02;;;;;;;13.35;2.30;;;;;;;6.17;42.75;99232.91;2217900;40;20065;-77
2021/04/27 06:20:34;;;;;;;10.35;2.58;;;;;;;6.20;42.63;99230.81;2160006;40;20034;-78
2021/04/27 06:22:04;;;;;;;8.57;2.50;;;;;;;6.25;42.85;99219.78;2215001;40;20045;-76
2021/04/27 06:23:36;;;;;;;6.60;2.22;;;;;;;6.33;42.75;99222.56;2216606;40;20770;-77
2021/04/27 06:25:09;;;;;;;4.63;1.77;;;;;;;6.50;42.23;99217.59;2216966;40;20449;-76
2021/04/27 06:26:41;;;;;;;6.25;2.40;;;;;;;6.46;42.10;99219.69;2176399;40;20040;-76
2021/04/27 06:28:13;;;;;;;6.93;2.28;;;;;;;6.49;42.24;99210.59;2215240;40;20041;-77
2021/04/27 06:29:45;;;;;;;6.85;2.30;;;;;;;6.55;42.09;99223.31;2195535;40;20057;-76
2021/04/27 06:31:18;;;;;;;7.38;2.33;;;;;;;6.46;42.12;99224.13;2207199;40;20476;-78
2021/04/27 06:32:52;;;;;;;6.35;2.33;;;;;;;6.39;42.19;99223.84;2218171;40;20025;-77
2021/04/27 06:34:25;;;;;;;11.98;2.88;;;;;;;6.40;42.32;99222.88;2206482;40;20600;-76
2021/04/27 06:35:56;;;;;;;5.82;2.13;;;;;;;6.49;42.20;99222.03;2204748;40;20479;-77
2021/04/27 06:37:27;;;;;;;5.63;2.20;;;;;;;6.49;42.15;99215.91;2209092;40;20034;-77
2021/04/27 06:38:59;;;;;;;21.65;8.93;;;;;;;6.44;41.99;99223.44;2215984;40;20087;-77
2021/04/27 06:40:31;;;;;;;11.95;3.75;;;;;;;6.45;42.04;99222.47;2204029;40;20033;-77
2021/04/27 06:42:03;;;;;;;6.07;2.65;;;;;;;6.49;42.03;99215.91;2213601;40;20033;-77
2021/04/27 06:43:35;;;;;;;8.73;2.25;;;;;;;6.57;41.98;99216.03;2180615;40;20045;-77
2021/04/27 06:45:07;;;;;;;7.65;2.08;;;;;;;6.71;41.87;99215.59;2229428;40;20036;-77
2021/04/27 06:46:38;;;;;;;7.93;1.95;;;;;;;6.81;41.30;99210.31;2217910;40;22441;-76
2021/04/27 06:48:11;;;;;;;6.43;3.00;;;;;;;6.84;41.58;99210.03;2220253;40;20026;-79
2021/04/27 06:49:43;;;;;;;6.85;2.50;;;;;;;6.95;41.25;99209.03;2190939;40;20073;-78
2021/04/27 06:51:17;;;;;;;5.45;2.67;;;;;;;7.09;41.17;99210.41;2216319;40;20030;-77
2021/04/27 06:52:48;;;;;;;6.40;2.60;;;;;;;7.02;41.25;99209.31;2203539;40;20751;-77
2021/04/27 06:54:20;;;;;;;9.45;3.78;;;;;;;7.01;41.58;99203.13;2216402;40;20131;-78
2021/04/27 06:55:51;;;;;;;6.57;2.50;;;;;;;7.12;41.26;99201.31;2203880;40;20061;-78
2021/04/27 06:57:23;;;;;;;6.95;2.47;;;;;;;7.18;41.15;99211.34;2217447;40;20049;-78
2021/04/27 06:58:54;;;;;;;5.75;2.50;;;;;;;7.20;40.77;99201.41;2183483;40;20399;-78
2021/04/27 07:00:25;;;;;;;7.32;1.92;;;;;;;7.16;41.02;99198.22;2168724;41;20474;-79
2021/04/27 07:01:57;;;;;;;5.00;2.22;;;;;;;7.23;41.04;99206.47;2175101;40;20788;-77
2021/04/27 07:03:29;;;;;;;6.03;2.75;;;;;;;7.30;41.08;99196.91;2203312;40;20042;-78
2021/04/27 07:05:01;;;;;;;9.90;2.55;;;;;;;7.39;40.64;99192.56;2193576;40;20069;-78
2021/04/27 07:06:32;;;;;;;5.90;1.95;;;;;;;7.34;40.51;99194.81;2202871;40;20058;-78
2021/04/27 07:08:05;;;;;;;6.35;2.22;;;;;;;7.37;40.38;99199.03;2196564;40;20488;-78
2021/04/27 07:09:36;;;;;;;4.18;1.92;;;;;;;7.31;40.80;99193.28;2204663;40;20115;-78
2021/04/27 07:11:08;;;;;;;5.57;2.15;;;;;;;7.48;40.57;99196.16;2218025;40;20122;-78
2021/04/27 07:12:40;;;;;;;6.45;2.30;;;;;;;7.53;40.61;99196.56;2217697;40;20025;-78
2021/04/27 07:14:11;;;;;;;5.85;2.33;;;;;;;7.68;40.25;99191.63;2210128;40;20369;-77
2021/04/27 07:15:42;;;;;;;6.90;2.50;;;;;;;7.76;39.93;99199.69;2217254;40;20026;-77
2021/04/27 07:17:13;;;;;;;7.72;2.30;;;;;;;7.87;39.78;99193.34;2215898;40;20045;-77
2021/04/27 07:18:44;;;;;;;4.47;2.10;;;;;;;7.90;39.61;99190.38;2217620;40;20041;-77